Time,TemperatureF,DewpointF,PressureIn,WindDirection,WindDirectionDegrees,WindSpeedMPH,WindSpeedGustMPH,Humidity,HourlyPrecipIn,Conditions,Clouds,dailyrainin,SolarRadiationWatts/m^2,SoftwareType,DateUTC
2013-05-12 00:04:00,58.5,32.0,30.20,West,265,3.0,-999.0,37,-99.99,,,0.00,0,weatherlink.com 1.10,2013-05-12 06:04:00,
2013-05-12 00:19:00,56.9,33.0,30.20,WSW,256,0.0,-999.0,40,-99.99,,,0.00,0,weatherlink.com 1.10,2013-05-12 06:19:00,
2013-05-12 00:34:00,56.0,32.0,30.20,WSW,256,0.0,-999.0,41,-99.99,,,0.00,0,weatherlink.com 1.10,2013-05-12 06:34:00,
2013-05-12 00:49:00,55.6,32.0,30.20,WSW,256,0.0,-999.0,41,-99.99,,,0.00,0,weatherlink.com 1.10,2013-05-12 06:49:00,
2013-05-12 01:04:00,56.5,33.0,30.20,WSW,248,0.0,-999.0,41,-99.99,,,0.00,0,weatherlink.com 1.10,2013-05-12 07:04:00,
2013-05-12 01:19:00,56.2,33.0,30.21,WSW,248,0.0,-999.0,41,-99.99,,,0.00,0,weatherlink.com 1.10,2013-05-12 07:19:00,
2013-05-12 01:34:00,56.2,33.0,30.21,WSW,249,0.0,-999.0,42,-99.99,,,0.00,0,weatherlink.com 1.10,2013-05-12 07:34:00,
2013-05-12 01:49:00,55.9,33.0,30.21,WSW,254,3.0,-999.0,42,-99.99,,,0.00,0,weatherlink.com 1.10,2013-05-12 07:49:00,
2013-05-12 02:04:00,55.7,33.0,30.20,West,261,0.0,-999.0,43,-99.99,,,0.00,0,weatherlink.com 1.10,2013-05-12 08:04:00,
2013-05-12 02:19:00,55.7,33.0,30.20,West,261,0.0,-999.0,43,-99.99,,,0.00,0,weatherlink.com 1.10,2013-05-12 08:19:00,
2013-05-12 02:34:00,55.3,32.0,30.20,West,261,0.0,-999.0,42,-99.99,,,0.00,0,weatherlink.com 1.10,2013-05-12 08:34:00,
2013-05-12 02:49:00,55.3,33.0,30.20,NNE,13,0.0,-999.0,43,-99.99,,,0.00,0,weatherlink.com 1.10,2013-05-12 08:49:00,
2013-05-12 03:04:00,54.4,33.0,30.20,North,355,4.0,-999.0,44,-99.99,,,0.00,0,weatherlink.com 1.10,2013-05-12 09:04:00,
2013-05-12 03:19:00,54.5,33.0,30.20,NW,306,0.0,-999.0,44,-99.99,,,0.00,0,weatherlink.com 1.10,2013-05-12 09:19:00,
2013-05-12 03:34:00,54.1,32.0,30.20,WNW,302,2.0,-999.0,44,-99.99,,,0.00,0,weatherlink.com 1.10,2013-05-12 09:34:00,
2013-05-12 03:49:00,53.7,32.0,30.19,WNW,296,4.0,-999.0,44,-99.99,,,0.00,0,weatherlink.com 1.10,2013-05-12 09:49:00,
2013-05-12 04:04:00,52.9,32.0,30.19,WNW,297,0.0,-999.0,45,-99.99,,,0.00,0,weatherlink.com 1.10,2013-05-12 10:04:00,
2013-05-12 04:19:00,52.6,32.0,30.19,WNW,295,0.0,-999.0,46,-99.99,,,0.00,0,weatherlink.com 1.10,2013-05-12 10:19:00,
2013-05-12 04:34:00,51.4,32.0,30.19,NW,315,0.0,-999.0,47,-99.99,,,0.00,0,weatherlink.com 1.10,2013-05-12 10:34:00,
2013-05-12 04:49:00,51.9,32.0,30.19,WNW,293,2.0,-999.0,46,-99.99,,,0.00,0,weatherlink.com 1.10,2013-05-12 10:49:00,
2013-05-12 05:04:00,52.6,32.0,30.19,WNW,284,3.0,-999.0,46,-99.99,,,0.00,0,weatherlink.com 1.10,2013-05-12 11:04:00,
2013-05-12 05:19:00,52.6,32.0,30.19,West,280,0.0,-999.0,46,-99.99,,,0.00,0,weatherlink.com 1.10,2013-05-12 11:19:00,
2013-05-12 05:35:00,52.5,32.0,30.19,WNW,288,0.0,-999.0,45,-99.99,,,0.00,0,weatherlink.com 1.10,2013-05-12 11:35:00,
2013-05-12 05:50:00,51.5,32.0,30.19,NNW,340,3.0,-999.0,47,-99.99,,,0.00,0,weatherlink.com 1.10,2013-05-12 11:50:00,
2013-05-12 06:05:00,49.6,31.0,30.19,NE,34,4.0,-999.0,50,-99.99,,,0.00,12,weatherlink.com 1.10,2013-05-12 12:05:00,
2013-05-12 06:20:00,48.3,32.0,30.19,NNE,19,5.0,-999.0,54,-99.99,,,0.00,32,weatherlink.com 1.10,2013-05-12 12:20:00,
2013-05-12 06:35:00,49.4,33.0,30.20,NNE,19,0.0,-999.0,54,-99.99,,,0.00,56,weatherlink.com 1.10,2013-05-12 12:35:00,
2013-05-12 06:50:00,51.0,34.0,30.20,NNE,19,0.0,-999.0,53,-99.99,,,0.00,97,weatherlink.com 1.10,2013-05-12 12:50:00,
2013-05-12 07:05:00,52.4,35.0,30.20,NNE,19,0.0,-999.0,52,-99.99,,,0.00,120,weatherlink.com 1.10,2013-05-12 13:05:00,
2013-05-12 07:20:00,53.7,35.0,30.20,NNE,19,0.0,-999.0,50,-99.99,,,0.00,156,weatherlink.com 1.10,2013-05-12 13:20:00,
2013-05-12 07:35:00,54.1,34.0,30.20,NNE,19,0.0,-999.0,46,-99.99,,,0.00,183,weatherlink.com 1.10,2013-05-12 13:35:00,
2013-05-12 07:50:00,54.8,34.0,30.20,NNE,19,0.0,-999.0,46,-99.99,,,0.00,278,weatherlink.com 1.10,2013-05-12 13:50:00,
2013-05-12 08:05:00,56.7,34.0,30.20,NNE,19,0.0,-999.0,43,-99.99,,,0.00,346,weatherlink.com 1.10,2013-05-12 14:05:00,
2013-05-12 08:20:00,58.8,34.0,30.20,SW,225,3.0,-999.0,39,-99.99,,,0.00,374,weatherlink.com 1.10,2013-05-12 14:20:00,
2013-05-12 08:35:00,60.1,35.0,30.19,SW,232,4.0,-999.0,39,-99.99,,,0.00,406,weatherlink.com 1.10,2013-05-12 14:35:00,
2013-05-12 08:50:00,61.2,35.0,30.19,SW,231,0.0,-999.0,38,-99.99,,,0.00,464,weatherlink.com 1.10,2013-05-12 14:50:00,
2013-05-12 09:05:00,63.1,36.0,30.18,SW,229,3.0,-999.0,37,-99.99,,,0.00,510,weatherlink.com 1.10,2013-05-12 15:05:00,
2013-05-12 09:20:00,64.3,36.0,30.18,West,273,0.0,-999.0,35,-99.99,,,0.00,566,weatherlink.com 1.10,2013-05-12 15:20:00,
2013-05-12 09:35:00,66.4,36.0,30.17,West,273,8.0,-999.0,33,-99.99,,,0.00,659,weatherlink.com 1.10,2013-05-12 15:35:00,
2013-05-12 09:50:00,69.3,36.0,30.16,NW,313,4.0,-999.0,29,-99.99,,,0.00,577,weatherlink.com 1.10,2013-05-12 15:50:00,
2013-05-12 10:05:00,71.3,36.0,30.16,West,271,0.0,-999.0,28,-99.99,,,0.00,729,weatherlink.com 1.10,2013-05-12 16:05:00,
2013-05-12 10:21:00,73.6,38.0,30.15,West,267,0.0,-999.0,27,-99.99,,,0.00,780,weatherlink.com 1.10,2013-05-12 16:21:00,
2013-05-12 10:36:00,74.9,37.0,30.14,NNE,33,2.0,-999.0,25,-99.99,,,0.00,773,weatherlink.com 1.10,2013-05-12 16:36:00,
2013-05-12 10:51:00,74.3,34.0,30.13,WSW,258,6.0,-999.0,23,-99.99,,,0.00,773,weatherlink.com 1.10,2013-05-12 16:51:00,
2013-05-12 11:06:00,74.9,35.0,30.13,NW,314,6.0,-999.0,23,-99.99,,,0.00,802,weatherlink.com 1.10,2013-05-12 17:06:00,
2013-05-12 11:21:00,75.9,34.0,30.13,WNW,292,3.0,-999.0,22,-99.99,,,0.00,835,weatherlink.com 1.10,2013-05-12 17:21:00,
2013-05-12 11:36:00,77.1,34.0,30.12,NW,321,2.0,-999.0,21,-99.99,,,0.00,907,weatherlink.com 1.10,2013-05-12 17:36:00,
2013-05-12 11:51:00,77.8,32.0,30.11,North,355,9.0,-999.0,19,-99.99,,,0.00,912,weatherlink.com 1.10,2013-05-12 17:51:00,
2013-05-12 12:06:00,78.2,31.0,30.10,North,9,6.0,-999.0,18,-99.99,,,0.00,932,weatherlink.com 1.10,2013-05-12 18:06:00,
2013-05-12 12:21:00,78.5,33.0,30.09,West,281,5.0,-999.0,19,-99.99,,,0.00,947,weatherlink.com 1.10,2013-05-12 18:21:00,
2013-05-12 12:36:00,78.5,33.0,30.09,NNW,344,7.0,-999.0,19,-99.99,,,0.00,946,weatherlink.com 1.10,2013-05-12 18:36:00,
2013-05-12 12:51:00,79.0,33.0,30.07,WNW,296,3.0,-999.0,19,-99.99,,,0.00,954,weatherlink.com 1.10,2013-05-12 18:51:00,
2013-05-12 13:06:00,78.9,33.0,30.07,NNW,348,3.0,-999.0,19,-99.99,,,0.00,962,weatherlink.com 1.10,2013-05-12 19:06:00,
2013-05-12 13:21:00,79.1,32.0,30.06,West,274,4.0,-999.0,18,-99.99,,,0.00,909,weatherlink.com 1.10,2013-05-12 19:21:00,
2013-05-12 13:36:00,79.7,36.0,30.05,WNW,296,8.0,-999.0,21,-99.99,,,0.00,884,weatherlink.com 1.10,2013-05-12 19:36:00,
2013-05-12 13:51:00,80.0,30.0,30.04,West,264,16.0,-999.0,16,-99.99,,,0.00,907,weatherlink.com 1.10,2013-05-12 19:51:00,
2013-05-12 14:06:00,80.7,30.0,30.04,WNW,293,8.0,-999.0,16,-99.99,,,0.00,891,weatherlink.com 1.10,2013-05-12 20:06:00,
2013-05-12 14:21:00,81.2,29.0,30.03,West,261,14.0,-999.0,15,-99.99,,,0.00,798,weatherlink.com 1.10,2013-05-12 20:21:00,
2013-05-12 14:36:00,80.9,29.0,30.03,NW,304,22.0,-999.0,15,-99.99,,,0.00,907,weatherlink.com 1.10,2013-05-12 20:36:00,
2013-05-12 14:51:00,81.6,30.0,30.03,WNW,298,14.0,-999.0,15,-99.99,,,0.00,875,weatherlink.com 1.10,2013-05-12 20:51:00,
2013-05-12 15:06:00,81.8,28.0,30.03,WNW,284,16.0,-999.0,14,-99.99,,,0.00,708,weatherlink.com 1.10,2013-05-12 21:06:00,
2013-05-12 15:21:00,80.7,29.0,30.02,West,272,16.0,-999.0,15,-99.99,,,0.00,457,weatherlink.com 1.10,2013-05-12 21:21:00,
2013-05-12 15:36:00,80.8,29.0,30.02,WNW,298,9.0,-999.0,15,-99.99,,,0.00,334,weatherlink.com 1.10,2013-05-12 21:36:00,
2013-05-12 15:51:00,81.0,29.0,30.02,WNW,298,0.0,-999.0,15,-99.99,,,0.00,394,weatherlink.com 1.10,2013-05-12 21:51:00,
2013-05-12 16:07:00,80.1,28.0,30.01,WNW,284,15.0,-999.0,15,-99.99,,,0.00,271,weatherlink.com 1.10,2013-05-12 22:07:00,
2013-05-12 16:22:00,80.4,29.0,30.00,NNW,328,2.0,-999.0,15,-99.99,,,0.00,376,weatherlink.com 1.10,2013-05-12 22:22:00,
2013-05-12 16:37:00,80.8,29.0,30.00,WNW,302,13.0,-999.0,15,-99.99,,,0.00,408,weatherlink.com 1.10,2013-05-12 22:37:00,
2013-05-12 16:52:00,80.7,29.0,30.00,West,268,8.0,-999.0,15,-99.99,,,0.00,512,weatherlink.com 1.10,2013-05-12 22:52:00,
2013-05-12 17:07:00,80.7,29.0,30.00,WNW,294,18.0,-999.0,15,-99.99,,,0.00,396,weatherlink.com 1.10,2013-05-12 23:07:00,
2013-05-12 17:22:00,81.1,29.0,29.99,WNW,290,17.0,-999.0,15,-99.99,,,0.00,455,weatherlink.com 1.10,2013-05-12 23:22:00,
2013-05-12 17:37:00,81.2,29.0,29.99,WNW,296,13.0,-999.0,15,-99.99,,,0.00,454,weatherlink.com 1.10,2013-05-12 23:37:00,
2013-05-12 17:52:00,81.2,29.0,29.98,WNW,294,12.0,-999.0,15,-99.99,,,0.00,415,weatherlink.com 1.10,2013-05-12 23:52:00,
2013-05-12 18:07:00,81.8,30.0,29.98,WNW,287,14.0,-999.0,15,-99.99,,,0.00,404,weatherlink.com 1.10,2013-05-13 00:07:00,
2013-05-12 18:22:00,80.9,29.0,29.97,West,272,13.0,-999.0,15,-99.99,,,0.00,239,weatherlink.com 1.10,2013-05-13 00:22:00,
2013-05-12 18:37:00,79.7,30.0,29.97,WNW,282,21.0,-999.0,16,-99.99,,,0.00,204,weatherlink.com 1.10,2013-05-13 00:37:00,
2013-05-12 18:52:00,79.0,31.0,29.97,WNW,285,15.0,-999.0,17,-99.99,,,0.00,165,weatherlink.com 1.10,2013-05-13 00:52:00,
2013-05-12 19:07:00,78.6,30.0,29.97,WNW,303,17.0,-999.0,17,-99.99,,,0.00,116,weatherlink.com 1.10,2013-05-13 01:07:00,
2013-05-12 19:22:00,77.9,31.0,29.98,NW,309,2.0,-999.0,18,-99.99,,,0.00,120,weatherlink.com 1.10,2013-05-13 01:22:00,
2013-05-12 19:37:00,77.1,32.0,29.98,NE,47,6.0,-999.0,19,-99.99,,,0.00,91,weatherlink.com 1.10,2013-05-13 01:37:00,
2013-05-12 19:52:00,76.9,33.0,29.98,NNE,32,3.0,-999.0,20,-99.99,,,0.00,46,weatherlink.com 1.10,2013-05-13 01:52:00,
2013-05-12 20:07:00,76.0,31.0,29.98,NW,306,2.0,-999.0,19,-99.99,,,0.00,21,weatherlink.com 1.10,2013-05-13 02:07:00,
2013-05-12 20:22:00,75.3,32.0,29.98,WNW,303,0.0,-999.0,20,-99.99,,,0.00,0,weatherlink.com 1.10,2013-05-13 02:22:00,
2013-05-12 20:37:00,74.1,31.0,29.98,WNW,289,2.0,-999.0,20,-99.99,,,0.00,0,weatherlink.com 1.10,2013-05-13 02:37:00,
2013-05-12 20:52:00,72.8,32.0,29.99,NNW,337,0.0,-999.0,22,-99.99,,,0.00,0,weatherlink.com 1.10,2013-05-13 02:52:00,
2013-05-12 21:07:00,71.3,32.0,29.99,NW,319,1.0,-999.0,23,-99.99,,,0.00,0,weatherlink.com 1.10,2013-05-13 03:07:00,
2013-05-12 21:22:00,70.3,31.0,30.00,NNW,329,0.0,-999.0,23,-99.99,,,0.00,0,weatherlink.com 1.10,2013-05-13 03:22:00,
2013-05-12 21:37:00,68.9,31.0,30.01,NW,311,0.0,-999.0,24,-99.99,,,0.00,0,weatherlink.com 1.10,2013-05-13 03:37:00,
2013-05-12 21:52:00,67.9,31.0,30.01,WNW,302,0.0,-999.0,25,-99.99,,,0.00,0,weatherlink.com 1.10,2013-05-13 03:52:00,
2013-05-12 22:07:00,67.2,31.0,30.01,NW,323,0.0,-999.0,26,-99.99,,,0.00,0,weatherlink.com 1.10,2013-05-13 04:07:00,
2013-05-12 22:22:00,67.4,31.0,30.02,WNW,292,0.0,-999.0,26,-99.99,,,0.00,0,weatherlink.com 1.10,2013-05-13 04:22:00,
2013-05-12 22:37:00,66.4,32.0,30.02,WNW,295,0.0,-999.0,28,-99.99,,,0.00,0,weatherlink.com 1.10,2013-05-13 04:37:00,
2013-05-12 22:52:00,65.6,32.0,30.02,WSW,254,0.0,-999.0,29,-99.99,,,0.00,0,weatherlink.com 1.10,2013-05-13 04:52:00,
2013-05-12 23:07:00,64.7,31.0,30.02,WNW,296,0.0,-999.0,28,-99.99,,,0.00,0,weatherlink.com 1.10,2013-05-13 05:07:00,
2013-05-12 23:22:00,65.0,32.0,30.02,WNW,296,0.0,-999.0,29,-99.99,,,0.00,0,weatherlink.com 1.10,2013-05-13 05:22:00,
2013-05-12 23:37:00,64.2,32.0,30.02,WNW,296,0.0,-999.0,30,-99.99,,,0.00,0,weatherlink.com 1.10,2013-05-13 05:37:00,
2013-05-12 23:52:00,64.1,33.0,30.02,WNW,296,0.0,-999.0,31,-99.99,,,0.00,0,weatherlink.com 1.10,2013-05-13 05:52:00,